sensor_id;sensor_type;location;lat;lon;timestamp;temperature;humidity
48744;DHT22;34538;48.836;9.174;2023-04-21T00:00:12;4.70;99.90
48744;DHT22;34538;48.836;9.174;2023-04-21T00:02:40;4.70;99.90
48744;DHT22;34538;48.836;9.174;2023-04-21T00:05:08;4.70;99.90
48744;DHT22;34538;48.836;9.174;2023-04-21T00:07:37;4.70;99.90
48744;DHT22;34538;48.836;9.174;2023-04-21T00:10:05;4.70;99.90
48744;DHT22;34538;48.836;9.174;2023-04-21T00:12:33;4.60;99.90
48744;DHT22;34538;48.836;9.174;2023-04-21T00:15:00;4.70;99.90
48744;DHT22;34538;48.836;9.174;2023-04-21T00:17:28;4.60;99.90
48744;DHT22;34538;48.836;9.174;2023-04-21T00:19:54;4.60;99.90
48744;DHT22;34538;48.836;9.174;2023-04-21T00:22:21;4.60;99.90
48744;DHT22;34538;48.836;9.174;2023-04-21T00:24:48;4.60;99.90
48744;DHT22;34538;48.836;9.174;2023-04-21T00:27:15;4.60;99.90
48744;DHT22;34538;48.836;9.174;2023-04-21T00:29:44;4.60;99.90
48744;DHT22;34538;48.836;9.174;2023-04-21T00:32:10;4.60;99.90
48744;DHT22;34538;48.836;9.174;2023-04-21T00:34:37;4.60;99.90
48744;DHT22;34538;48.836;9.174;2023-04-21T00:37:04;4.60;99.90
48744;DHT22;34538;48.836;9.174;2023-04-21T00:39:31;4.60;99.90
48744;DHT22;34538;48.836;9.174;2023-04-21T00:41:58;4.60;99.90
48744;DHT22;34538;48.836;9.174;2023-04-21T00:44:26;4.60;99.90
48744;DHT22;34538;48.836;9.174;2023-04-21T00:46:54;4.60;99.90
48744;DHT22;34538;48.836;9.174;2023-04-21T00:49:21;4.60;99.90
48744;DHT22;34538;48.836;9.174;2023-04-21T00:51:50;4.60;99.90
48744;DHT22;34538;48.836;9.174;2023-04-21T00:54:18;4.60;99.90
48744;DHT22;34538;48.836;9.174;2023-04-21T00:56:45;4.60;99.90
48744;DHT22;34538;48.836;9.174;2023-04-21T00:59:12;4.60;99.90
48744;DHT22;34538;48.836;9.174;2023-04-21T01:01:40;4.60;99.90
48744;DHT22;34538;48.836;9.174;2023-04-21T01:04:08;4.50;99.90
48744;DHT22;34538;48.836;9.174;2023-04-21T01:06:36;4.50;99.90
48744;DHT22;34538;48.836;9.174;2023-04-21T01:09:03;4.50;99.90
48744;DHT22;34538;48.836;9.174;2023-04-21T01:11:30;4.50;99.90
48744;DHT22;34538;48.836;9.174;2023-04-21T01:13:57;4.60;99.90
48744;DHT22;34538;48.836;9.174;2023-04-21T01:16:23;4.50;99.90
48744;DHT22;34538;48.836;9.174;2023-04-21T01:18:52;4.50;99.90
48744;DHT22;34538;48.836;9.174;2023-04-21T01:21:21;4.50;99.90
48744;DHT22;34538;48.836;9.174;2023-04-21T01:23:49;4.50;99.90
48744;DHT22;34538;48.836;9.174;2023-04-21T01:26:17;4.50;99.90
48744;DHT22;34538;48.836;9.174;2023-04-21T01:28:44;4.50;99.90
48744;DHT22;34538;48.836;9.174;2023-04-21T01:31:12;4.50;99.90
48744;DHT22;34538;48.836;9.174;2023-04-21T01:33:39;4.40;99.90
48744;DHT22;34538;48.836;9.174;2023-04-21T01:36:07;4.30;99.90
48744;DHT22;34538;48.836;9.174;2023-04-21T01:38:37;4.30;99.90
48744;DHT22;34538;48.836;9.174;2023-04-21T01:41:05;4.30;99.90
48744;DHT22;34538;48.836;9.174;2023-04-21T01:43:32;4.20;99.90
48744;DHT22;34538;48.836;9.174;2023-04-21T01:45:59;4.20;99.90
48744;DHT22;34538;48.836;9.174;2023-04-21T01:48:26;4.10;99.90
48744;DHT22;34538;48.836;9.174;2023-04-21T01:50:52;4.10;99.90
48744;DHT22;34538;48.836;9.174;2023-04-21T01:53:19;4.00;99.90
48744;DHT22;34538;48.836;9.174;2023-04-21T01:55:46;4.00;99.90
48744;DHT22;34538;48.836;9.174;2023-04-21T01:58:14;3.90;99.90
48744;DHT22;34538;48.836;9.174;2023-04-21T02:00:41;3.90;99.90
48744;DHT22;34538;48.836;9.174;2023-04-21T02:03:08;3.90;99.90
48744;DHT22;34538;48.836;9.174;2023-04-21T02:05:36;3.80;99.90
48744;DHT22;34538;48.836;9.174;2023-04-21T02:08:04;3.80;99.90
48744;DHT22;34538;48.836;9.174;2023-04-21T02:10:31;3.70;99.90
48744;DHT22;34538;48.836;9.174;2023-04-21T02:12:58;3.70;99.90
48744;DHT22;34538;48.836;9.174;2023-04-21T02:15:27;3.60;99.90
48744;DHT22;34538;48.836;9.174;2023-04-21T02:17:53;3.60;99.90
48744;DHT22;34538;48.836;9.174;2023-04-21T02:20:24;3.60;99.90
48744;DHT22;34538;48.836;9.174;2023-04-21T02:22:51;3.60;99.90
48744;DHT22;34538;48.836;9.174;2023-04-21T02:25:18;3.60;99.90
48744;DHT22;34538;48.836;9.174;2023-04-21T02:27:45;3.60;99.90
48744;DHT22;34538;48.836;9.174;2023-04-21T02:30:12;3.60;99.90
48744;DHT22;34538;48.836;9.174;2023-04-21T02:32:42;3.60;99.90
48744;DHT22;34538;48.836;9.174;2023-04-21T02:35:10;3.50;99.90
48744;DHT22;34538;48.836;9.174;2023-04-21T02:37:37;3.50;99.90
48744;DHT22;34538;48.836;9.174;2023-04-21T02:40:05;3.50;99.90
48744;DHT22;34538;48.836;9.174;2023-04-21T02:42:32;3.50;99.90
48744;DHT22;34538;48.836;9.174;2023-04-21T02:44:59;3.40;99.90
48744;DHT22;34538;48.836;9.174;2023-04-21T02:47:26;3.40;99.90
48744;DHT22;34538;48.836;9.174;2023-04-21T02:49:54;3.40;99.90
48744;DHT22;34538;48.836;9.174;2023-04-21T02:52:21;3.30;99.90
48744;DHT22;34538;48.836;9.174;2023-04-21T02:54:49;3.30;99.90
48744;DHT22;34538;48.836;9.174;2023-04-21T02:57:16;3.30;99.90
48744;DHT22;34538;48.836;9.174;2023-04-21T02:59:43;3.30;99.90
48744;DHT22;34538;48.836;9.174;2023-04-21T03:02:10;3.20;99.90
48744;DHT22;34538;48.836;9.174;2023-04-21T03:04:37;3.20;99.90
48744;DHT22;34538;48.836;9.174;2023-04-21T03:07:10;3.20;99.90
48744;DHT22;34538;48.836;9.174;2023-04-21T03:09:38;3.10;99.90
48744;DHT22;34538;48.836;9.174;2023-04-21T03:12:05;3.10;99.90
48744;DHT22;34538;48.836;9.174;2023-04-21T03:14:32;3.10;99.90
48744;DHT22;34538;48.836;9.174;2023-04-21T03:17:00;3.10;99.90
48744;DHT22;34538;48.836;9.174;2023-04-21T03:19:26;3.10;99.90
48744;DHT22;34538;48.836;9.174;2023-04-21T03:21:54;3.10;99.90
48744;DHT22;34538;48.836;9.174;2023-04-21T03:24:22;3.10;99.90
48744;DHT22;34538;48.836;9.174;2023-04-21T03:26:49;3.10;99.90
48744;DHT22;34538;48.836;9.174;2023-04-21T03:29:17;3.10;99.90
48744;DHT22;34538;48.836;9.174;2023-04-21T03:31:44;3.10;99.90
48744;DHT22;34538;48.836;9.174;2023-04-21T03:34:11;3.10;99.90
48744;DHT22;34538;48.836;9.174;2023-04-21T03:36:38;3.10;99.90
48744;DHT22;34538;48.836;9.174;2023-04-21T03:39:05;3.10;99.90
48744;DHT22;34538;48.836;9.174;2023-04-21T03:41:33;3.20;99.90
48744;DHT22;34538;48.836;9.174;2023-04-21T03:44:02;3.20;99.90
48744;DHT22;34538;48.836;9.174;2023-04-21T03:46:29;3.20;99.90
48744;DHT22;34538;48.836;9.174;2023-04-21T03:48:56;3.30;99.90
48744;DHT22;34538;48.836;9.174;2023-04-21T03:51:22;3.30;99.90
48744;DHT22;34538;48.836;9.174;2023-04-21T03:53:49;3.30;99.90
48744;DHT22;34538;48.836;9.174;2023-04-21T03:56:16;3.20;99.90
48744;DHT22;34538;48.836;9.174;2023-04-21T03:58:44;3.30;99.90
48744;DHT22;34538;48.836;9.174;2023-04-21T04:01:11;3.20;99.90
48744;DHT22;34538;48.836;9.174;2023-04-21T04:03:38;3.30;99.90
48744;DHT22;34538;48.836;9.174;2023-04-21T04:06:05;3.30;99.90
48744;DHT22;34538;48.836;9.174;2023-04-21T04:08:32;3.30;99.90
48744;DHT22;34538;48.836;9.174;2023-04-21T04:10:59;3.40;99.90
48744;DHT22;34538;48.836;9.174;2023-04-21T04:13:25;3.40;99.90
48744;DHT22;34538;48.836;9.174;2023-04-21T04:15:55;3.40;99.90
48744;DHT22;34538;48.836;9.174;2023-04-21T04:18:23;3.40;99.90
48744;DHT22;34538;48.836;9.174;2023-04-21T04:20:49;3.40;99.90
48744;DHT22;34538;48.836;9.174;2023-04-21T04:23:16;3.30;99.90
48744;DHT22;34538;48.836;9.174;2023-04-21T04:25:43;3.40;99.90
48744;DHT22;34538;48.836;9.174;2023-04-21T04:28:12;3.40;99.90
48744;DHT22;34538;48.836;9.174;2023-04-21T04:30:40;3.40;99.90
48744;DHT22;34538;48.836;9.174;2023-04-21T04:33:08;3.40;99.90
48744;DHT22;34538;48.836;9.174;2023-04-21T04:35:36;3.50;99.90
48744;DHT22;34538;48.836;9.174;2023-04-21T04:38:03;3.50;99.90
48744;DHT22;34538;48.836;9.174;2023-04-21T04:40:31;3.50;99.90
48744;DHT22;34538;48.836;9.174;2023-04-21T04:42:58;3.50;99.90
48744;DHT22;34538;48.836;9.174;2023-04-21T04:45:25;3.50;99.90
48744;DHT22;34538;48.836;9.174;2023-04-21T04:47:53;3.50;99.90
48744;DHT22;34538;48.836;9.174;2023-04-21T04:50:21;3.50;99.90
48744;DHT22;34538;48.836;9.174;2023-04-21T04:52:49;3.60;99.90
48744;DHT22;34538;48.836;9.174;2023-04-21T04:55:16;3.60;99.90
48744;DHT22;34538;48.836;9.174;2023-04-21T04:57:43;3.60;99.90
48744;DHT22;34538;48.836;9.174;2023-04-21T05:00:10;3.60;99.90
48744;DHT22;34538;48.836;9.174;2023-04-21T05:02:38;3.60;99.90
48744;DHT22;34538;48.836;9.174;2023-04-21T05:05:06;3.60;99.90
48744;DHT22;34538;48.836;9.174;2023-04-21T05:07:34;3.70;99.90
48744;DHT22;34538;48.836;9.174;2023-04-21T05:10:01;3.70;99.90
48744;DHT22;34538;48.836;9.174;2023-04-21T05:12:29;3.70;99.90
48744;DHT22;34538;48.836;9.174;2023-04-21T05:14:57;3.80;99.90
48744;DHT22;34538;48.836;9.174;2023-04-21T05:17:24;3.80;99.90
48744;DHT22;34538;48.836;9.174;2023-04-21T05:19:51;3.90;99.90
48744;DHT22;34538;48.836;9.174;2023-04-21T05:22:18;3.90;99.90
48744;DHT22;34538;48.836;9.174;2023-04-21T05:24:46;4.00;99.90
48744;DHT22;34538;48.836;9.174;2023-04-21T05:27:13;4.00;99.90
48744;DHT22;34538;48.836;9.174;2023-04-21T05:29:40;4.00;99.90
48744;DHT22;34538;48.836;9.174;2023-04-21T05:32:07;4.10;99.90
48744;DHT22;34538;48.836;9.174;2023-04-21T05:34:36;4.20;99.90
48744;DHT22;34538;48.836;9.174;2023-04-21T05:37:03;4.20;99.90
48744;DHT22;34538;48.836;9.174;2023-04-21T05:39:30;4.20;99.90
48744;DHT22;34538;48.836;9.174;2023-04-21T05:41:58;4.20;99.90
48744;DHT22;34538;48.836;9.174;2023-04-21T05:44:25;4.20;99.90
48744;DHT22;34538;48.836;9.174;2023-04-21T05:46:52;4.30;99.90
48744;DHT22;34538;48.836;9.174;2023-04-21T05:49:19;4.30;99.90
48744;DHT22;34538;48.836;9.174;2023-04-21T05:51:45;4.40;99.90
48744;DHT22;34538;48.836;9.174;2023-04-21T05:54:12;4.40;99.90
48744;DHT22;34538;48.836;9.174;2023-04-21T05:56:39;4.40;99.90
48744;DHT22;34538;48.836;9.174;2023-04-21T05:59:07;4.40;99.90
48744;DHT22;34538;48.836;9.174;2023-04-21T06:01:34;4.40;99.90
48744;DHT22;34538;48.836;9.174;2023-04-21T06:04:01;4.50;99.90
48744;DHT22;34538;48.836;9.174;2023-04-21T06:06:28;4.50;99.90
48744;DHT22;34538;48.836;9.174;2023-04-21T06:08:55;4.60;99.90
48744;DHT22;34538;48.836;9.174;2023-04-21T06:11:21;4.60;99.90
48744;DHT22;34538;48.836;9.174;2023-04-21T06:13:48;4.80;99.90
48744;DHT22;34538;48.836;9.174;2023-04-21T06:16:19;4.90;99.90
48744;DHT22;34538;48.836;9.174;2023-04-21T06:18:46;4.90;99.90
48744;DHT22;34538;48.836;9.174;2023-04-21T06:21:12;5.00;99.90
48744;DHT22;34538;48.836;9.174;2023-04-21T06:23:40;5.20;99.90
48744;DHT22;34538;48.836;9.174;2023-04-21T06:26:07;5.30;99.90
48744;DHT22;34538;48.836;9.174;2023-04-21T06:28:35;5.40;99.90
48744;DHT22;34538;48.836;9.174;2023-04-21T06:31:03;5.50;99.90
48744;DHT22;34538;48.836;9.174;2023-04-21T06:33:32;5.60;99.90
48744;DHT22;34538;48.836;9.174;2023-04-21T06:35:59;5.80;99.90
48744;DHT22;34538;48.836;9.174;2023-04-21T06:38:26;5.90;99.90
48744;DHT22;34538;48.836;9.174;2023-04-21T06:40:53;6.00;99.90
48744;DHT22;34538;48.836;9.174;2023-04-21T06:43:20;6.10;99.90
48744;DHT22;34538;48.836;9.174;2023-04-21T06:45:46;6.40;99.90
48744;DHT22;34538;48.836;9.174;2023-04-21T06:48:13;6.50;99.90
48744;DHT22;34538;48.836;9.174;2023-04-21T06:50:41;6.70;99.90
48744;DHT22;34538;48.836;9.174;2023-04-21T06:53:11;6.90;99.90
48744;DHT22;34538;48.836;9.174;2023-04-21T06:55:38;7.00;99.90
48744;DHT22;34538;48.836;9.174;2023-04-21T06:58:04;7.10;99.90
48744;DHT22;34538;48.836;9.174;2023-04-21T07:00:34;7.10;99.90
48744;DHT22;34538;48.836;9.174;2023-04-21T07:03:01;7.10;99.90
48744;DHT22;34538;48.836;9.174;2023-04-21T07:05:28;7.20;99.90
48744;DHT22;34538;48.836;9.174;2023-04-21T07:07:56;7.20;99.90
48744;DHT22;34538;48.836;9.174;2023-04-21T07:10:24;7.10;99.90
48744;DHT22;34538;48.836;9.174;2023-04-21T07:12:51;7.20;99.90
48744;DHT22;34538;48.836;9.174;2023-04-21T07:15:18;7.20;99.90
48744;DHT22;34538;48.836;9.174;2023-04-21T07:17:45;7.20;99.90
48744;DHT22;34538;48.836;9.174;2023-04-21T07:20:12;7.20;99.90
48744;DHT22;34538;48.836;9.174;2023-04-21T07:22:39;7.20;99.90
48744;DHT22;34538;48.836;9.174;2023-04-21T07:25:08;7.20;99.90
48744;DHT22;34538;48.836;9.174;2023-04-21T07:27:35;7.30;99.90
48744;DHT22;34538;48.836;9.174;2023-04-21T07:30:02;7.40;99.90
48744;DHT22;34538;48.836;9.174;2023-04-21T07:32:29;7.40;99.90
48744;DHT22;34538;48.836;9.174;2023-04-21T07:34:56;7.50;99.90
48744;DHT22;34538;48.836;9.174;2023-04-21T07:37:23;7.50;99.90
48744;DHT22;34538;48.836;9.174;2023-04-21T07:39:51;7.70;99.90
48744;DHT22;34538;48.836;9.174;2023-04-21T07:42:19;7.80;99.90
48744;DHT22;34538;48.836;9.174;2023-04-21T07:44:47;7.90;99.90
48744;DHT22;34538;48.836;9.174;2023-04-21T07:47:14;7.90;99.90
48744;DHT22;34538;48.836;9.174;2023-04-21T07:49:41;8.00;99.90
48744;DHT22;34538;48.836;9.174;2023-04-21T07:52:08;8.10;99.90
48744;DHT22;34538;48.836;9.174;2023-04-21T07:54:34;8.30;99.90
48744;DHT22;34538;48.836;9.174;2023-04-21T07:57:01;8.40;99.90
48744;DHT22;34538;48.836;9.174;2023-04-21T07:59:29;8.50;99.90
48744;DHT22;34538;48.836;9.174;2023-04-21T08:01:56;8.70;99.90
48744;DHT22;34538;48.836;9.174;2023-04-21T08:04:23;8.80;99.90
48744;DHT22;34538;48.836;9.174;2023-04-21T08:06:50;8.90;99.90
48744;DHT22;34538;48.836;9.174;2023-04-21T08:09:17;9.10;99.90
48744;DHT22;34538;48.836;9.174;2023-04-21T08:11:44;9.20;99.90
48744;DHT22;34538;48.836;9.174;2023-04-21T08:14:11;9.30;99.90
48744;DHT22;34538;48.836;9.174;2023-04-21T08:16:40;9.40;99.90
48744;DHT22;34538;48.836;9.174;2023-04-21T08:19:07;9.60;99.90
48744;DHT22;34538;48.836;9.174;2023-04-21T08:21:35;9.80;99.90
48744;DHT22;34538;48.836;9.174;2023-04-21T08:24:02;9.90;99.90
48744;DHT22;34538;48.836;9.174;2023-04-21T08:26:29;10.10;99.90
48744;DHT22;34538;48.836;9.174;2023-04-21T08:28:58;10.20;99.90
48744;DHT22;34538;48.836;9.174;2023-04-21T08:31:25;10.20;99.90
48744;DHT22;34538;48.836;9.174;2023-04-21T08:33:53;10.20;99.90
48744;DHT22;34538;48.836;9.174;2023-04-21T08:36:20;10.20;99.90
48744;DHT22;34538;48.836;9.174;2023-04-21T08:38:47;10.40;99.90
48744;DHT22;34538;48.836;9.174;2023-04-21T08:41:14;10.40;99.90
48744;DHT22;34538;48.836;9.174;2023-04-21T08:43:41;10.50;99.90
48744;DHT22;34538;48.836;9.174;2023-04-21T08:46:08;10.60;99.90
48744;DHT22;34538;48.836;9.174;2023-04-21T08:48:36;10.60;99.90
48744;DHT22;34538;48.836;9.174;2023-04-21T08:51:06;10.70;99.90
48744;DHT22;34538;48.836;9.174;2023-04-21T08:53:35;10.70;99.90
48744;DHT22;34538;48.836;9.174;2023-04-21T08:56:02;10.70;99.90
48744;DHT22;34538;48.836;9.174;2023-04-21T08:58:29;10.70;99.90
48744;DHT22;34538;48.836;9.174;2023-04-21T09:00:56;10.70;99.90
48744;DHT22;34538;48.836;9.174;2023-04-21T09:03:27;10.70;99.90
48744;DHT22;34538;48.836;9.174;2023-04-21T09:05:58;10.80;99.90
48744;DHT22;34538;48.836;9.174;2023-04-21T09:08:27;10.80;99.90
48744;DHT22;34538;48.836;9.174;2023-04-21T09:10:56;10.80;99.90
48744;DHT22;34538;48.836;9.174;2023-04-21T09:13:29;10.90;99.90
48744;DHT22;34538;48.836;9.174;2023-04-21T09:15:57;10.90;99.90
48744;DHT22;34538;48.836;9.174;2023-04-21T09:18:26;10.80;99.90
48744;DHT22;34538;48.836;9.174;2023-04-21T09:21:04;10.80;99.90
48744;DHT22;34538;48.836;9.174;2023-04-21T09:23:38;10.80;99.90
48744;DHT22;34538;48.836;9.174;2023-04-21T09:26:06;10.90;99.90
48744;DHT22;34538;48.836;9.174;2023-04-21T09:28:33;10.90;99.90
48744;DHT22;34538;48.836;9.174;2023-04-21T09:31:00;10.90;99.90
48744;DHT22;34538;48.836;9.174;2023-04-21T09:33:27;10.90;99.90
48744;DHT22;34538;48.836;9.174;2023-04-21T09:35:53;11.00;99.90
48744;DHT22;34538;48.836;9.174;2023-04-21T09:38:21;11.20;99.90
48744;DHT22;34538;48.836;9.174;2023-04-21T09:40:57;11.20;99.90
48744;DHT22;34538;48.836;9.174;2023-04-21T09:43:24;11.20;99.90
48744;DHT22;34538;48.836;9.174;2023-04-21T09:45:51;11.20;99.90
48744;DHT22;34538;48.836;9.174;2023-04-21T09:48:19;11.20;99.90
48744;DHT22;34538;48.836;9.174;2023-04-21T09:50:48;11.40;99.90
48744;DHT22;34538;48.836;9.174;2023-04-21T09:53:15;11.50;99.90
48744;DHT22;34538;48.836;9.174;2023-04-21T09:55:47;11.50;99.90
48744;DHT22;34538;48.836;9.174;2023-04-21T09:58:19;11.60;99.90
48744;DHT22;34538;48.836;9.174;2023-04-21T10:00:49;11.70;99.90
48744;DHT22;34538;48.836;9.174;2023-04-21T10:03:19;11.80;99.90
48744;DHT22;34538;48.836;9.174;2023-04-21T10:05:46;11.80;99.90
48744;DHT22;34538;48.836;9.174;2023-04-21T10:08:13;11.90;99.90
48744;DHT22;34538;48.836;9.174;2023-04-21T10:10:41;12.00;99.90
48744;DHT22;34538;48.836;9.174;2023-04-21T10:13:13;12.10;99.90
48744;DHT22;34538;48.836;9.174;2023-04-21T10:15:42;12.20;99.90
48744;DHT22;34538;48.836;9.174;2023-04-21T10:18:14;12.30;99.90
48744;DHT22;34538;48.836;9.174;2023-04-21T10:20:51;12.40;99.90
48744;DHT22;34538;48.836;9.174;2023-04-21T10:23:35;12.40;99.90
48744;DHT22;34538;48.836;9.174;2023-04-21T10:26:08;12.40;99.90
48744;DHT22;34538;48.836;9.174;2023-04-21T10:28:46;12.50;99.90
48744;DHT22;34538;48.836;9.174;2023-04-21T10:31:25;12.60;99.90
48744;DHT22;34538;48.836;9.174;2023-04-21T10:34:21;12.60;99.90
48744;DHT22;34538;48.836;9.174;2023-04-21T10:37:10;12.70;99.90
48744;DHT22;34538;48.836;9.174;2023-04-21T10:39:44;12.80;99.90
48744;DHT22;34538;48.836;9.174;2023-04-21T10:42:21;12.90;99.90
48744;DHT22;34538;48.836;9.174;2023-04-21T10:45:10;13.00;99.90
48744;DHT22;34538;48.836;9.174;2023-04-21T10:47:48;13.10;99.90
48744;DHT22;34538;48.836;9.174;2023-04-21T10:50:21;13.20;99.90
48744;DHT22;34538;48.836;9.174;2023-04-21T10:52:56;13.20;99.90
48744;DHT22;34538;48.836;9.174;2023-04-21T10:55:28;13.30;99.90
48744;DHT22;34538;48.836;9.174;2023-04-21T10:57:55;13.30;99.90
48744;DHT22;34538;48.836;9.174;2023-04-21T11:00:24;13.30;99.90
48744;DHT22;34538;48.836;9.174;2023-04-21T11:02:57;13.40;99.90
48744;DHT22;34538;48.836;9.174;2023-04-21T11:05:29;13.60;99.90
48744;DHT22;34538;48.836;9.174;2023-04-21T11:08:04;13.70;99.90
48744;DHT22;34538;48.836;9.174;2023-04-21T11:10:41;13.90;99.90
48744;DHT22;34538;48.836;9.174;2023-04-21T11:13:08;14.10;99.90
48744;DHT22;34538;48.836;9.174;2023-04-21T11:15:36;14.20;99.90
48744;DHT22;34538;48.836;9.174;2023-04-21T11:18:04;14.40;99.90
48744;DHT22;34538;48.836;9.174;2023-04-21T11:20:31;14.50;99.90
48744;DHT22;34538;48.836;9.174;2023-04-21T11:22:58;14.60;99.90
48744;DHT22;34538;48.836;9.174;2023-04-21T11:25:25;14.60;99.90
48744;DHT22;34538;48.836;9.174;2023-04-21T11:27:53;14.70;99.90
48744;DHT22;34538;48.836;9.174;2023-04-21T11:30:20;14.70;99.90
48744;DHT22;34538;48.836;9.174;2023-04-21T11:32:53;14.80;99.90
48744;DHT22;34538;48.836;9.174;2023-04-21T11:35:22;14.80;99.90
48744;DHT22;34538;48.836;9.174;2023-04-21T11:37:49;14.90;99.90
48744;DHT22;34538;48.836;9.174;2023-04-21T11:40:17;14.90;99.90
48744;DHT22;34538;48.836;9.174;2023-04-21T11:42:44;15.00;99.90
48744;DHT22;34538;48.836;9.174;2023-04-21T11:45:16;15.10;99.90
48744;DHT22;34538;48.836;9.174;2023-04-21T11:47:43;15.20;99.90
48744;DHT22;34538;48.836;9.174;2023-04-21T11:50:10;15.30;99.90
48744;DHT22;34538;48.836;9.174;2023-04-21T11:52:39;15.40;99.90
48744;DHT22;34538;48.836;9.174;2023-04-21T11:55:11;15.40;99.90
48744;DHT22;34538;48.836;9.174;2023-04-21T11:57:40;15.40;99.90
48744;DHT22;34538;48.836;9.174;2023-04-21T12:00:09;15.50;99.90
48744;DHT22;34538;48.836;9.174;2023-04-21T12:02:37;15.40;99.90
48744;DHT22;34538;48.836;9.174;2023-04-21T12:05:05;15.50;99.90
48744;DHT22;34538;48.836;9.174;2023-04-21T12:07:34;15.50;99.90
48744;DHT22;34538;48.836;9.174;2023-04-21T12:10:08;15.70;99.90
48744;DHT22;34538;48.836;9.174;2023-04-21T12:12:36;15.80;99.90
48744;DHT22;34538;48.836;9.174;2023-04-21T12:15:04;15.90;99.90
48744;DHT22;34538;48.836;9.174;2023-04-21T12:17:36;15.90;99.90
48744;DHT22;34538;48.836;9.174;2023-04-21T12:20:05;16.00;99.90
48744;DHT22;34538;48.836;9.174;2023-04-21T12:22:32;16.00;99.90
48744;DHT22;34538;48.836;9.174;2023-04-21T12:24:59;16.10;99.90
48744;DHT22;34538;48.836;9.174;2023-04-21T12:27:27;16.10;99.90
48744;DHT22;34538;48.836;9.174;2023-04-21T12:29:54;16.20;99.90
48744;DHT22;34538;48.836;9.174;2023-04-21T12:32:22;16.20;99.90
48744;DHT22;34538;48.836;9.174;2023-04-21T12:34:49;16.20;99.90
48744;DHT22;34538;48.836;9.174;2023-04-21T12:37:17;16.20;99.90
48744;DHT22;34538;48.836;9.174;2023-04-21T12:39:44;16.30;99.90
48744;DHT22;34538;48.836;9.174;2023-04-21T12:42:11;16.30;99.90
48744;DHT22;34538;48.836;9.174;2023-04-21T12:44:39;16.40;99.90
48744;DHT22;34538;48.836;9.174;2023-04-21T12:47:06;16.40;99.90
48744;DHT22;34538;48.836;9.174;2023-04-21T12:49:33;16.50;99.90
48744;DHT22;34538;48.836;9.174;2023-04-21T12:51:59;16.50;99.90
48744;DHT22;34538;48.836;9.174;2023-04-21T12:54:26;16.60;99.90
48744;DHT22;34538;48.836;9.174;2023-04-21T12:56:53;16.60;99.90
48744;DHT22;34538;48.836;9.174;2023-04-21T12:59:20;16.70;99.90
48744;DHT22;34538;48.836;9.174;2023-04-21T13:01:49;16.80;99.90
48744;DHT22;34538;48.836;9.174;2023-04-21T13:04:16;16.90;99.90
48744;DHT22;34538;48.836;9.174;2023-04-21T13:06:43;16.90;99.90
48744;DHT22;34538;48.836;9.174;2023-04-21T13:09:10;17.00;99.90
48744;DHT22;34538;48.836;9.174;2023-04-21T13:11:37;17.00;99.90
48744;DHT22;34538;48.836;9.174;2023-04-21T13:14:04;17.10;99.90
48744;DHT22;34538;48.836;9.174;2023-04-21T13:16:31;17.20;99.90
48744;DHT22;34538;48.836;9.174;2023-04-21T13:18:59;17.20;99.90
48744;DHT22;34538;48.836;9.174;2023-04-21T13:21:26;17.20;99.90
48744;DHT22;34538;48.836;9.174;2023-04-21T13:23:53;17.30;99.90
48744;DHT22;34538;48.836;9.174;2023-04-21T13:26:20;17.30;99.90
48744;DHT22;34538;48.836;9.174;2023-04-21T13:28:47;17.40;99.90
48744;DHT22;34538;48.836;9.174;2023-04-21T13:31:14;17.50;99.90
48744;DHT22;34538;48.836;9.174;2023-04-21T13:33:41;17.50;99.90
48744;DHT22;34538;48.836;9.174;2023-04-21T13:36:09;17.60;99.90
48744;DHT22;34538;48.836;9.174;2023-04-21T13:38:36;17.60;99.90
48744;DHT22;34538;48.836;9.174;2023-04-21T13:41:05;17.70;99.90
48744;DHT22;34538;48.836;9.174;2023-04-21T13:43:32;17.80;99.90
48744;DHT22;34538;48.836;9.174;2023-04-21T13:45:59;17.90;99.90
48744;DHT22;34538;48.836;9.174;2023-04-21T13:48:26;17.90;99.90
48744;DHT22;34538;48.836;9.174;2023-04-21T13:50:54;17.90;99.90
48744;DHT22;34538;48.836;9.174;2023-04-21T13:53:22;17.90;99.90
48744;DHT22;34538;48.836;9.174;2023-04-21T13:55:49;17.80;99.90
48744;DHT22;34538;48.836;9.174;2023-04-21T13:58:17;17.80;99.90
48744;DHT22;34538;48.836;9.174;2023-04-21T14:00:44;17.70;99.90
48744;DHT22;34538;48.836;9.174;2023-04-21T14:03:11;17.70;99.90
48744;DHT22;34538;48.836;9.174;2023-04-21T14:05:38;17.80;99.90
48744;DHT22;34538;48.836;9.174;2023-04-21T14:08:05;17.80;99.90
48744;DHT22;34538;48.836;9.174;2023-04-21T14:10:33;17.90;99.90
48744;DHT22;34538;48.836;9.174;2023-04-21T14:13:01;18.00;99.90
48744;DHT22;34538;48.836;9.174;2023-04-21T14:15:29;18.00;99.90
48744;DHT22;34538;48.836;9.174;2023-04-21T14:17:56;18.10;99.90
48744;DHT22;34538;48.836;9.174;2023-04-21T14:20:23;18.20;99.90
48744;DHT22;34538;48.836;9.174;2023-04-21T14:22:50;18.20;99.90
48744;DHT22;34538;48.836;9.174;2023-04-21T14:25:16;18.10;99.90
48744;DHT22;34538;48.836;9.174;2023-04-21T14:27:45;18.20;99.90
48744;DHT22;34538;48.836;9.174;2023-04-21T14:30:12;18.20;99.90
48744;DHT22;34538;48.836;9.174;2023-04-21T14:32:39;18.20;99.90
48744;DHT22;34538;48.836;9.174;2023-04-21T14:35:09;18.20;99.90
48744;DHT22;34538;48.836;9.174;2023-04-21T14:37:36;18.20;99.90
48744;DHT22;34538;48.836;9.174;2023-04-21T14:40:04;18.30;99.90
48744;DHT22;34538;48.836;9.174;2023-04-21T14:42:31;18.30;99.90
48744;DHT22;34538;48.836;9.174;2023-04-21T14:45:00;18.40;99.90
48744;DHT22;34538;48.836;9.174;2023-04-21T14:47:27;18.40;99.90
48744;DHT22;34538;48.836;9.174;2023-04-21T14:49:54;18.50;99.90
48744;DHT22;34538;48.836;9.174;2023-04-21T14:52:20;18.50;99.90
48744;DHT22;34538;48.836;9.174;2023-04-21T14:54:49;18.50;99.90
48744;DHT22;34538;48.836;9.174;2023-04-21T14:57:15;18.60;99.90
48744;DHT22;34538;48.836;9.174;2023-04-21T14:59:43;18.60;99.90
48744;DHT22;34538;48.836;9.174;2023-04-21T15:02:12;18.60;99.90
48744;DHT22;34538;48.836;9.174;2023-04-21T15:04:39;18.60;99.90
48744;DHT22;34538;48.836;9.174;2023-04-21T15:07:06;18.60;99.90
48744;DHT22;34538;48.836;9.174;2023-04-21T15:09:33;18.70;99.90
48744;DHT22;34538;48.836;9.174;2023-04-21T15:12:00;18.70;99.90
48744;DHT22;34538;48.836;9.174;2023-04-21T15:14:27;18.70;99.90
48744;DHT22;34538;48.836;9.174;2023-04-21T15:16:54;18.80;99.90
48744;DHT22;34538;48.836;9.174;2023-04-21T15:19:22;18.80;99.90
48744;DHT22;34538;48.836;9.174;2023-04-21T15:21:49;18.90;99.90
48744;DHT22;34538;48.836;9.174;2023-04-21T15:24:16;18.80;99.90
48744;DHT22;34538;48.836;9.174;2023-04-21T15:26:43;19.00;99.90
48744;DHT22;34538;48.836;9.174;2023-04-21T15:29:10;19.10;99.90
48744;DHT22;34538;48.836;9.174;2023-04-21T15:31:37;19.20;99.90
48744;DHT22;34538;48.836;9.174;2023-04-21T15:34:03;19.20;99.90
48744;DHT22;34538;48.836;9.174;2023-04-21T15:36:32;19.30;99.90
48744;DHT22;34538;48.836;9.174;2023-04-21T15:38:58;19.40;99.60
48744;DHT22;34538;48.836;9.174;2023-04-21T15:41:25;19.40;99.90
48744;DHT22;34538;48.836;9.174;2023-04-21T15:43:54;19.40;99.50